Terminal Aerodrome Forecast
Issued by NWS

Home | Current Version | Previous Version | Text Only | Print | Product List | Glossary On
Versions: 1 2 3 4 5 6 7 8 9 10 11 12
000
FTUS45 KSLC 200531
TAFOGD
TAF
KOGD 200531Z 2006/2106 17012KT P6SM BKN120
     FM201300 18015G27KT P6SM FEW050 BKN100
     FM201700 28018G26KT P6SM SCT050 OVC080
     FM201900 33018G28KT P6SM -RA SCT025 OVC050
     FM210100 29015KT P6SM VCSH SCT030 BKN050=

USA.gov is the U.S. government's official web portal to all federal, state and local government web resources and services.